Time;durP1;ratioP1;P1;durP2;ratioP2;P2;SDS_P1;SDS_P2;PMS_P1;PMS_P2;Temp;Humidity;BMP_temperature;BMP_pressure;BME280_temperature;BME280_humidity;BME280_pressure;Samples;Min_cycle;Max_cycle;Signal;HPM_P1;HPM_P2
2023/06/16 04:01:51;;;;;;;3.67;2.23;;;16.10;95.30;;;;;;5369509;23;20502;-85
2023/06/16 04:04:17;;;;;;;4.33;3.37;;;16.10;95.30;;;;;;4958583;28;20432;-89
2023/06/16 04:06:43;;;;;;;1.77;1.67;;;16.10;95.30;;;;;;4951201;29;20186;-85
2023/06/16 04:09:09;;;;;;;2.83;2.63;;;16.10;95.50;;;;;;4949318;28;20286;-86
2023/06/16 04:11:40;;;;;;;4.37;2.70;;;16.10;95.50;;;;;;4952303;28;21079;-86
2023/06/16 04:14:05;;;;;;;3.47;2.57;;;16.00;95.70;;;;;;4935849;29;20444;-85
2023/06/16 04:16:31;;;;;;;2.90;2.13;;;16.00;95.80;;;;;;4962422;23;20483;-72
2023/06/16 04:18:56;;;;;;;5.13;3.17;;;16.00;95.70;;;;;;4928415;29;20263;-73
2023/06/16 04:21:22;;;;;;;5.80;3.10;;;15.90;95.70;;;;;;4932637;28;20721;-73
2023/06/16 04:23:49;;;;;;;3.27;3.07;;;15.90;95.80;;;;;;4909044;29;20208;-74
2023/06/16 04:26:21;;;;;;;3.93;2.93;;;15.90;96.00;;;;;;4923981;29;20424;-74
2023/06/16 04:28:53;;;;;;;4.20;3.13;;;15.80;96.00;;;;;;4913592;29;20419;-73
2023/06/16 04:31:22;;;;;;;2.80;2.00;;;15.70;96.40;;;;;;4926277;29;20968;-73
2023/06/16 04:33:48;;;;;;;6.10;4.50;;;15.60;96.60;;;;;;4916898;29;20427;-73
2023/06/16 04:36:14;;;;;;;3.17;1.77;;;15.60;96.80;;;;;;4928194;29;20499;-73
2023/06/16 04:38:40;;;;;;;3.33;2.23;;;15.50;97.10;;;;;;4917622;29;20424;-74
2023/06/16 04:41:06;;;;;;;3.37;2.30;;;15.50;97.30;;;;;;4918840;29;20467;-73
2023/06/16 04:43:31;;;;;;;3.87;2.37;;;15.50;97.30;;;;;;4912888;29;20439;-74
2023/06/16 04:45:58;;;;;;;4.50;2.80;;;15.50;97.30;;;;;;4928443;29;20176;-74
2023/06/16 04:48:25;;;;;;;5.10;3.03;;;15.50;97.30;;;;;;4922701;29;20180;-71
2023/06/16 04:50:52;;;;;;;3.53;3.00;;;15.50;97.30;;;;;;4925358;29;20461;-74
2023/06/16 04:53:18;;;;;;;17.07;2.80;;;15.50;97.30;;;;;;4922312;29;20476;-75
2023/06/16 04:55:44;;;;;;;3.17;2.93;;;15.50;97.30;;;;;;4918672;29;20420;-74
2023/06/16 04:58:11;;;;;;;3.17;2.13;;;15.50;97.30;;;;;;4919457;29;20427;-73
2023/06/16 05:00:36;;;;;;;3.60;2.27;;;15.50;97.30;;;;;;4926883;29;20452;-73
2023/06/16 05:03:02;;;;;;;3.03;2.13;;;15.50;97.30;;;;;;4928603;29;20427;-73
2023/06/16 05:05:27;;;;;;;9.73;3.00;;;15.50;97.30;;;;;;4916177;29;20199;-73
2023/06/16 05:07:53;;;;;;;4.63;2.57;;;15.50;97.30;;;;;;4915889;29;20183;-73
2023/06/16 05:10:18;;;;;;;3.13;2.93;;;15.50;97.30;;;;;;4918137;29;20676;-74
2023/06/16 05:12:44;;;;;;;2.33;2.17;;;15.50;97.30;;;;;;4919641;29;20213;-73
2023/06/16 05:15:10;;;;;;;3.73;2.63;;;15.50;97.30;;;;;;4918194;29;20221;-73
2023/06/16 05:17:37;;;;;;;5.10;3.00;;;15.50;97.30;;;;;;4919258;29;20185;-73
2023/06/16 05:20:03;;;;;;;6.43;3.33;;;15.50;97.30;;;;;;4913488;29;20177;-73
2023/06/16 05:22:28;;;;;;;4.43;2.70;;;15.50;97.30;;;;;;4918875;29;20433;-74
2023/06/16 05:24:54;;;;;;;4.23;1.97;;;15.50;97.30;;;;;;4927598;29;20824;-73
2023/06/16 05:27:28;;;;;;;3.67;3.20;;;15.60;97.30;;;;;;4921048;29;20254;-74
2023/06/16 05:29:55;;;;;;;4.70;2.23;;;15.60;97.30;;;;;;4921445;29;20171;-73
2023/06/16 05:32:21;;;;;;;7.63;3.57;;;15.70;97.30;;;;;;4912686;29;20456;-72
2023/06/16 05:34:51;;;;;;;3.93;3.60;;;15.70;97.30;;;;;;4916496;29;21072;-73
2023/06/16 05:37:19;;;;;;;4.40;2.93;;;15.70;97.30;;;;;;4924805;29;20434;-74
2023/06/16 05:39:48;;;;;;;8.80;4.00;;;15.70;97.30;;;;;;4927385;29;20412;-73
2023/06/16 05:42:15;;;;;;;5.40;2.17;;;15.80;97.30;;;;;;4926782;29;20610;-72
2023/06/16 05:44:44;;;;;;;5.50;4.00;;;15.80;97.30;;;;;;4910386;29;20479;-73
2023/06/16 05:47:10;;;;;;;6.73;3.03;;;15.80;97.30;;;;;;4923993;29;20408;-73
2023/06/16 05:49:36;;;;;;;3.20;2.70;;;15.90;97.30;;;;;;4931805;29;20845;-73
2023/06/16 05:52:03;;;;;;;5.73;3.77;;;15.90;97.30;;;;;;4928684;29;20454;-74
2023/06/16 05:54:29;;;;;;;2.50;2.30;;;16.00;97.30;;;;;;4925974;29;20193;-73
2023/06/16 05:56:56;;;;;;;6.50;3.13;;;16.00;97.30;;;;;;4928080;29;20426;-74
2023/06/16 05:59:21;;;;;;;2.73;2.53;;;16.00;97.30;;;;;;4920051;29;20203;-75
2023/06/16 06:01:49;;;;;;;3.67;3.10;;;16.00;97.30;;;;;;4925830;29;20475;-74
2023/06/16 06:04:15;;;;;;;5.80;4.33;;;16.00;97.30;;;;;;4923359;29;20250;-74
2023/06/16 06:06:40;;;;;;;2.70;2.50;;;16.00;97.30;;;;;;4923423;29;20427;-73
2023/06/16 06:09:06;;;;;;;6.13;4.23;;;16.00;97.30;;;;;;4930301;29;20528;-72
2023/06/16 06:11:32;;;;;;;23.63;3.13;;;16.00;97.30;;;;;;4920455;29;20214;-70
2023/06/16 06:13:57;;;;;;;1.87;1.70;;;16.00;97.30;;;;;;4929605;29;20674;-72
2023/06/16 06:16:23;;;;;;;5.50;3.30;;;15.90;97.30;;;;;;4933137;29;20232;-71
2023/06/16 06:18:49;;;;;;;5.07;2.90;;;15.90;97.30;;;;;;4926340;29;20679;-73
2023/06/16 06:21:15;;;;;;;4.27;2.63;;;15.90;97.30;;;;;;4926971;29;20475;-74
2023/06/16 06:23:41;;;;;;;5.90;3.73;;;15.90;97.30;;;;;;4927008;29;20186;-73
2023/06/16 06:26:06;;;;;;;3.53;2.07;;;15.80;97.30;;;;;;4920938;29;20433;-73
2023/06/16 06:28:32;;;;;;;4.93;4.00;;;15.80;97.30;;;;;;4916249;29;20716;-73
2023/06/16 06:30:57;;;;;;;5.40;2.50;;;15.70;97.30;;;;;;4924602;29;20423;-72
2023/06/16 06:33:23;;;;;;;5.13;2.93;;;15.70;97.30;;;;;;4921707;29;20180;-73
2023/06/16 06:35:48;;;;;;;2.93;2.73;;;15.70;97.30;;;;;;4923460;29;20491;-73
2023/06/16 06:38:15;;;;;;;2.60;2.23;;;15.70;97.30;;;;;;4926327;29;20231;-72
2023/06/16 06:40:40;;;;;;;9.57;3.87;;;15.70;97.30;;;;;;4930888;29;20204;-73
2023/06/16 06:43:06;;;;;;;4.53;2.90;;;15.70;97.30;;;;;;4922257;29;20958;-73
2023/06/16 06:45:31;;;;;;;6.37;3.17;;;15.70;97.30;;;;;;4915822;29;20223;-73
2023/06/16 06:47:57;;;;;;;6.50;3.90;;;15.80;97.30;;;;;;4925456;29;20172;-74
2023/06/16 06:50:22;;;;;;;7.17;4.10;;;15.80;97.30;;;;;;4943120;29;20719;-74
2023/06/16 06:52:48;;;;;;;7.93;2.37;;;15.80;97.30;;;;;;4916187;29;20180;-74
2023/06/16 06:55:13;;;;;;;6.80;4.20;;;15.80;97.30;;;;;;4921078;29;20635;-74
2023/06/16 06:57:40;;;;;;;6.00;4.10;;;15.80;97.30;;;;;;4927577;29;20232;-73
2023/06/16 07:00:07;;;;;;;4.60;3.07;;;15.80;97.30;;;;;;4929846;29;20173;-73
2023/06/16 07:02:33;;;;;;;4.63;3.47;;;15.90;97.30;;;;;;4931012;29;20435;-73
2023/06/16 07:04:58;;;;;;;2.93;2.73;;;15.90;97.30;;;;;;4929596;29;20787;-72
2023/06/16 07:07:24;;;;;;;10.00;2.83;;;15.90;97.30;;;;;;4931192;29;20644;-73
2023/06/16 07:09:50;;;;;;;4.20;2.87;;;15.90;97.30;;;;;;4926922;29;20215;-72
2023/06/16 07:12:16;;;;;;;2.03;1.93;;;15.90;97.30;;;;;;4930937;29;20604;-73
2023/06/16 07:14:42;;;;;;;3.33;2.47;;;15.90;97.30;;;;;;4928433;29;20248;-73
2023/06/16 07:17:08;;;;;;;2.63;2.23;;;15.90;97.30;;;;;;4919798;29;20500;-73
2023/06/16 07:19:33;;;;;;;9.90;4.07;;;16.00;97.30;;;;;;4922864;29;20416;-73
2023/06/16 07:22:00;;;;;;;3.27;1.90;;;16.00;97.30;;;;;;4929299;29;20219;-72
2023/06/16 07:24:26;;;;;;;5.00;3.10;;;16.10;97.30;;;;;;4916069;29;20184;-72
2023/06/16 07:26:51;;;;;;;6.50;3.33;;;16.20;97.30;;;;;;4921367;29;20464;-73
2023/06/16 07:29:17;;;;;;;3.33;2.53;;;16.20;97.30;;;;;;4925175;29;20196;-73
2023/06/16 07:31:43;;;;;;;7.03;2.33;;;16.20;97.30;;;;;;4930744;29;20195;-73
2023/06/16 07:34:08;;;;;;;4.47;3.33;;;16.20;97.30;;;;;;4922976;29;20424;-72
2023/06/16 07:36:34;;;;;;;4.70;3.83;;;16.30;97.30;;;;;;4926074;29;20204;-73
2023/06/16 07:39:01;;;;;;;4.07;3.37;;;16.20;97.30;;;;;;4916714;29;20555;-72
2023/06/16 07:41:26;;;;;;;4.00;2.90;;;16.30;97.30;;;;;;4926979;29;20222;-73
2023/06/16 07:43:52;;;;;;;9.37;3.23;;;16.30;97.30;;;;;;4916222;29;20428;-73
2023/06/16 07:46:18;;;;;;;2.93;2.73;;;16.30;97.30;;;;;;4919776;29;20595;-73
2023/06/16 07:48:44;;;;;;;9.93;1.83;;;16.40;97.30;;;;;;4935001;29;20421;-73
2023/06/16 07:51:10;;;;;;;7.20;2.70;;;16.40;97.30;;;;;;4919561;29;20232;-72
2023/06/16 07:53:36;;;;;;;4.33;3.00;;;16.50;97.30;;;;;;4926537;29;20459;-73
2023/06/16 07:56:02;;;;;;;3.83;2.80;;;16.40;97.30;;;;;;4911947;29;20188;-72
2023/06/16 07:58:28;;;;;;;3.57;2.30;;;16.40;97.30;;;;;;4927831;29;20316;-73
2023/06/16 08:00:53;;;;;;;3.90;2.63;;;16.40;97.30;;;;;;4919468;29;21023;-73
2023/06/16 08:03:19;;;;;;;3.60;3.03;;;16.40;97.30;;;;;;4916828;29;20677;-73
2023/06/16 08:05:45;;;;;;;2.80;2.17;;;16.40;97.30;;;;;;4931995;29;20168;-73
2023/06/16 08:08:11;;;;;;;4.40;2.10;;;16.40;97.30;;;;;;4930288;29;20935;-73
2023/06/16 08:10:36;;;;;;;2.50;2.20;;;16.40;97.30;;;;;;4927542;29;20290;-73
2023/06/16 08:13:02;;;;;;;4.63;2.53;;;16.40;97.30;;;;;;4916590;29;20684;-73
2023/06/16 08:15:27;;;;;;;3.60;2.50;;;16.40;97.30;;;;;;4927790;29;20238;-72
2023/06/16 08:17:53;;;;;;;3.27;2.30;;;16.40;97.30;;;;;;4918034;29;20552;-73
2023/06/16 08:20:18;;;;;;;4.37;2.10;;;16.40;97.30;;;;;;4926838;29;20684;-73
2023/06/16 08:22:44;;;;;;;10.20;2.70;;;16.40;97.30;;;;;;4920455;29;20537;-73
2023/06/16 08:25:09;;;;;;;2.27;2.07;;;16.30;97.30;;;;;;4918717;29;20176;-73
2023/06/16 08:27:35;;;;;;;1.77;1.70;;;16.30;97.30;;;;;;4927593;29;20667;-73
2023/06/16 08:30:03;;;;;;;2.60;2.47;;;16.30;97.30;;;;;;4911847;29;20283;-72
2023/06/16 08:32:29;;;;;;;2.20;2.00;;;16.30;97.30;;;;;;4929491;29;20222;-73
2023/06/16 08:34:54;;;;;;;2.50;2.37;;;16.20;97.30;;;;;;4923659;29;20456;-75
2023/06/16 08:37:20;;;;;;;2.43;2.23;;;16.20;97.30;;;;;;4930946;29;20176;-75
2023/06/16 08:39:45;;;;;;;3.23;3.03;;;16.10;97.30;;;;;;4926592;29;20184;-74
2023/06/16 08:42:12;;;;;;;10.73;2.87;;;16.10;97.30;;;;;;4927428;29;20302;-73
2023/06/16 08:44:38;;;;;;;3.70;1.90;;;16.10;97.30;;;;;;4921051;29;20272;-74
2023/06/16 08:47:05;;;;;;;4.03;2.97;;;16.10;97.30;;;;;;4924114;29;20456;-74
2023/06/16 08:49:31;;;;;;;3.77;1.93;;;16.00;97.30;;;;;;4911530;29;20428;-73
2023/06/16 08:51:59;;;;;;;1.73;1.73;;;16.00;97.30;;;;;;4930879;29;20446;-73
2023/06/16 08:54:25;;;;;;;4.97;2.90;;;15.90;97.30;;;;;;4929004;29;20430;-73
2023/06/16 08:56:51;;;;;;;6.67;2.63;;;15.90;97.30;;;;;;4927439;29;20801;-72
2023/06/16 08:59:25;;;;;;;1.73;1.63;;;15.90;97.30;;;;;;4923740;29;20180;-73
2023/06/16 09:01:51;;;;;;;2.40;2.23;;;15.90;97.30;;;;;;4916183;29;20467;-73
2023/06/16 09:04:17;;;;;;;2.90;2.23;;;15.90;97.30;;;;;;4926504;29;20431;-72
2023/06/16 09:06:47;;;;;;;2.47;2.27;;;15.90;97.30;;;;;;4922124;29;20479;-72
2023/06/16 09:09:13;;;;;;;4.23;2.67;;;15.90;97.30;;;;;;4915213;29;20176;-73
2023/06/16 09:11:39;;;;;;;6.90;2.80;;;15.90;97.30;;;;;;4915891;29;20488;-75
2023/06/16 09:14:14;;;;;;;4.73;2.27;;;15.80;97.30;;;;;;4909936;29;20479;-73
2023/06/16 09:16:41;;;;;;;2.63;2.43;;;15.80;97.30;;;;;;4911647;29;20896;-73
2023/06/16 09:19:08;;;;;;;3.43;3.00;;;15.70;97.30;;;;;;4925539;29;20468;-73
2023/06/16 09:21:34;;;;;;;3.77;2.53;;;15.70;97.30;;;;;;4930075;29;20554;-72
2023/06/16 09:24:00;;;;;;;2.37;1.83;;;15.70;97.30;;;;;;4935038;29;20502;-71
2023/06/16 09:26:30;;;;;;;2.70;2.10;;;15.70;97.30;;;;;;4925437;29;20272;-71
2023/06/16 09:28:56;;;;;;;4.60;2.27;;;15.70;97.30;;;;;;4932705;29;20431;-72
2023/06/16 09:31:23;;;;;;;4.37;3.27;;;15.70;97.30;;;;;;4926381;29;20456;-71
2023/06/16 09:33:49;;;;;;;2.37;2.17;;;15.70;97.30;;;;;;4925646;29;20428;-73
2023/06/16 09:36:27;;;;;;;3.17;1.87;;;15.70;97.30;;;;;;4930192;29;20518;-72
2023/06/16 09:38:53;;;;;;;2.67;2.27;;;15.70;97.30;;;;;;4924209;29;20208;-72
2023/06/16 09:41:19;;;;;;;3.40;2.37;;;15.70;97.30;;;;;;4916442;29;20499;-71
2023/06/16 09:43:45;;;;;;;3.10;2.77;;;15.70;97.30;;;;;;4913907;29;20424;-72
2023/06/16 09:46:14;;;;;;;2.73;2.53;;;15.70;97.30;;;;;;4918504;29;20717;-72
2023/06/16 09:48:47;;;;;;;2.20;2.03;;;15.70;97.30;;;;;;4925981;29;20180;-72
2023/06/16 09:51:23;;;;;;;3.17;3.03;;;15.70;97.30;;;;;;4913612;29;20878;-72
2023/06/16 09:53:49;;;;;;;2.57;2.10;;;15.60;97.30;;;;;;4914795;29;20464;-72
2023/06/16 09:56:19;;;;;;;1.73;1.57;;;15.60;97.30;;;;;;4922905;29;20467;-72
2023/06/16 09:58:46;;;;;;;1.73;1.63;;;15.60;97.30;;;;;;4922865;29;20982;-72
2023/06/16 10:01:14;;;;;;;2.80;1.93;;;15.60;97.30;;;;;;4913681;29;20555;-72
2023/06/16 10:03:41;;;;;;;1.60;1.60;;;15.60;97.30;;;;;;4928507;29;20431;-72
2023/06/16 10:06:14;;;;;;;2.47;2.27;;;15.60;97.30;;;;;;4924589;29;20459;-72
2023/06/16 10:08:41;;;;;;;4.03;2.13;;;15.70;97.30;;;;;;4931591;29;20462;-72
2023/06/16 10:11:11;;;;;;;5.70;3.10;;;15.70;97.30;;;;;;4926869;29;20531;-72
2023/06/16 10:13:39;;;;;;;3.47;2.23;;;15.80;97.30;;;;;;4928804;29;20799;-72
2023/06/16 10:16:11;;;;;;;1.90;1.80;;;15.80;97.30;;;;;;4935728;23;20494;-88
2023/06/16 10:18:39;;;;;;;12.37;4.00;;;15.80;97.30;;;;;;4951051;29;20431;-82
2023/06/16 10:21:04;;;;;;;2.07;1.83;;;15.80;97.30;;;;;;4954157;29;20474;-82
2023/06/16 10:23:30;;;;;;;3.20;2.00;;;15.80;97.30;;;;;;4954300;29;20442;-83
2023/06/16 10:25:58;;;;;;;2.30;2.10;;;15.80;97.30;;;;;;4952280;29;20670;-82
2023/06/16 10:28:24;;;;;;;1.70;1.67;;;15.80;97.30;;;;;;4963206;23;20998;-70
2023/06/16 10:30:51;;;;;;;5.27;2.77;;;15.80;97.30;;;;;;4931713;29;20976;-69
2023/06/16 10:33:24;;;;;;;1.87;1.77;;;15.80;97.30;;;;;;4929561;29;20897;-68
2023/06/16 10:35:59;;;;;;;2.30;2.13;;;15.80;97.30;;;;;;4936510;29;20943;-70
2023/06/16 10:38:35;;;;;;;2.17;2.00;;;15.80;97.30;;;;;;4935009;29;20447;-69
2023/06/16 10:41:07;;;;;;;5.13;3.00;;;15.80;97.30;;;;;;4930392;29;20518;-70
2023/06/16 10:43:33;;;;;;;3.03;2.63;;;15.80;97.30;;;;;;4936007;29;20485;-69
2023/06/16 10:46:15;;;;;;;2.30;1.90;;;15.80;97.30;;;;;;4926471;29;20443;-68
2023/06/16 10:49:08;;;;;;;2.23;2.03;;;15.90;97.30;;;;;;4932461;29;20239;-69
2023/06/16 10:51:44;;;;;;;6.10;2.73;;;15.90;97.30;;;;;;4927310;29;20459;-70
2023/06/16 10:54:11;;;;;;;3.37;3.17;;;15.90;97.30;;;;;;4931147;29;21098;-70
2023/06/16 10:57:04;;;;;;;2.03;1.87;;;15.90;97.30;;;;;;4928603;29;20444;-70
2023/06/16 10:59:30;;;;;;;1.87;1.77;;;15.90;97.30;;;;;;4927039;28;20443;-69
2023/06/16 11:01:57;;;;;;;4.20;2.40;;;15.90;97.30;;;;;;4932436;29;20905;-69
2023/06/16 11:04:24;;;;;;;1.70;1.40;;;15.90;97.30;;;;;;4938986;29;20445;-70
2023/06/16 11:07:11;;;;;;;1.67;1.57;;;15.90;97.30;;;;;;4938777;29;20432;-70
2023/06/16 11:09:37;;;;;;;3.70;2.27;;;16.00;97.30;;;;;;4931011;29;20436;-69
2023/06/16 11:12:04;;;;;;;4.77;3.37;;;15.90;97.30;;;;;;4938932;29;20455;-70
2023/06/16 11:14:29;;;;;;;1.57;1.47;;;16.00;97.30;;;;;;4938780;29;20935;-70
2023/06/16 11:16:55;;;;;;;2.60;2.40;;;16.00;97.30;;;;;;4931946;29;20435;-70
2023/06/16 11:19:21;;;;;;;3.33;2.80;;;16.10;97.30;;;;;;4931292;29;20196;-69
2023/06/16 11:21:47;;;;;;;3.00;2.40;;;16.10;97.30;;;;;;4933793;29;20482;-69
2023/06/16 11:24:13;;;;;;;4.83;3.00;;;16.10;97.30;;;;;;4942329;29;20276;-69
2023/06/16 11:26:40;;;;;;;3.57;2.57;;;16.10;97.30;;;;;;4934902;28;20219;-69
2023/06/16 11:29:07;;;;;;;3.43;2.70;;;16.20;97.30;;;;;;4935657;29;20469;-69
2023/06/16 11:31:35;;;;;;;5.83;4.43;;;16.20;97.30;;;;;;4930434;29;20956;-69
2023/06/16 11:34:02;;;;;;;6.20;3.67;;;16.30;97.30;;;;;;4919063;29;20467;-69
2023/06/16 11:36:27;;;;;;;3.77;3.17;;;16.40;97.30;;;;;;4932570;29;20432;-68
2023/06/16 11:38:57;;;;;;;4.10;2.53;;;16.50;97.30;;;;;;4938308;29;20446;-68
2023/06/16 11:41:27;;;;;;;3.50;2.30;;;16.50;97.30;;;;;;4930003;29;20226;-69
2023/06/16 11:43:54;;;;;;;2.73;2.03;;;16.50;97.30;;;;;;4931454;29;20432;-69
2023/06/16 11:46:23;;;;;;;3.60;2.60;;;16.60;97.30;;;;;;4925117;29;20441;-71
2023/06/16 11:48:50;;;;;;;5.07;1.97;;;16.70;97.30;;;;;;4931526;29;20431;-70
2023/06/16 11:51:16;;;;;;;3.27;2.83;;;16.70;97.30;;;;;;4939470;29;20459;-71
2023/06/16 11:53:43;;;;;;;3.23;2.30;;;16.70;97.30;;;;;;4931293;29;20528;-70
2023/06/16 11:56:12;;;;;;;4.30;2.33;;;16.80;97.30;;;;;;4937447;29;20191;-70
2023/06/16 11:58:38;;;;;;;2.20;2.00;;;16.90;97.30;;;;;;4937777;29;20486;-70
2023/06/16 12:01:05;;;;;;;2.67;2.47;;;16.90;97.30;;;;;;4939263;29;20577;-70
2023/06/16 12:03:35;;;;;;;2.13;1.93;;;17.00;97.30;;;;;;4938343;29;20602;-70
2023/06/16 12:06:05;;;;;;;3.73;2.77;;;17.00;97.30;;;;;;4930184;29;20423;-70
2023/06/16 12:08:36;;;;;;;1.80;1.70;;;17.00;97.30;;;;;;4927524;29;20928;-69
2023/06/16 12:11:02;;;;;;;2.53;1.90;;;17.10;97.30;;;;;;4934793;28;20451;-70
2023/06/16 12:13:31;;;;;;;2.53;1.90;;;17.10;97.30;;;;;;4932602;29;20444;-69
2023/06/16 12:15:58;;;;;;;2.67;2.20;;;17.10;97.30;;;;;;4928740;29;20424;-70
2023/06/16 12:18:25;;;;;;;5.90;3.77;;;17.10;97.30;;;;;;4937370;29;20434;-70
2023/06/16 12:20:50;;;;;;;7.50;2.50;;;17.10;97.30;;;;;;4923869;29;20582;-70
2023/06/16 12:23:18;;;;;;;4.93;2.73;;;17.20;97.30;;;;;;4933974;29;20515;-69
2023/06/16 12:25:48;;;;;;;6.30;2.67;;;17.20;97.30;;;;;;4931294;29;20302;-69
2023/06/16 12:28:18;;;;;;;1.93;1.83;;;17.20;97.30;;;;;;4937379;29;20511;-72
2023/06/16 12:30:44;;;;;;;11.33;4.47;;;17.30;97.30;;;;;;4929803;29;20547;-70
2023/06/16 12:33:12;;;;;;;2.27;2.07;;;17.30;97.30;;;;;;4929910;29;20500;-69
2023/06/16 12:35:38;;;;;;;2.90;2.30;;;17.40;97.30;;;;;;4936679;29;20258;-69
2023/06/16 12:38:04;;;;;;;1.93;1.83;;;17.40;97.30;;;;;;4930799;29;20436;-69
2023/06/16 12:40:31;;;;;;;1.90;1.80;;;17.40;97.30;;;;;;4928440;29;20601;-69
2023/06/16 12:42:56;;;;;;;3.60;3.10;;;17.50;97.30;;;;;;4943739;29;20184;-69
2023/06/16 12:45:22;;;;;;;2.33;2.17;;;17.50;97.30;;;;;;4932681;29;20458;-69
2023/06/16 12:47:47;;;;;;;4.03;2.30;;;17.60;97.30;;;;;;4928170;29;20192;-69
2023/06/16 12:50:13;;;;;;;2.73;1.93;;;17.70;97.30;;;;;;4933391;29;20176;-69
2023/06/16 12:52:38;;;;;;;3.20;2.03;;;17.70;97.30;;;;;;4930037;29;20636;-68
2023/06/16 12:55:04;;;;;;;2.83;2.63;;;17.80;97.30;;;;;;4934068;28;20309;-69
2023/06/16 12:57:30;;;;;;;3.73;2.87;;;17.80;97.30;;;;;;4941180;28;20275;-71
2023/06/16 12:59:56;;;;;;;4.53;2.50;;;17.90;97.30;;;;;;4945709;29;20903;-70
2023/06/16 13:02:22;;;;;;;4.10;3.17;;;17.90;97.30;;;;;;4945150;29;20221;-70
2023/06/16 13:04:48;;;;;;;4.10;2.40;;;17.90;97.30;;;;;;4936160;29;20190;-68
2023/06/16 13:07:14;;;;;;;2.33;2.13;;;18.00;97.30;;;;;;4929709;29;20419;-69
2023/06/16 13:09:41;;;;;;;6.73;2.50;;;18.10;97.30;;;;;;4932851;29;20439;-69
2023/06/16 13:12:07;;;;;;;3.03;2.13;;;18.20;97.30;;;;;;4930951;29;20199;-70
2023/06/16 13:14:33;;;;;;;2.60;2.43;;;18.30;97.30;;;;;;4930348;29;20522;-69
2023/06/16 13:16:58;;;;;;;4.33;2.83;;;18.40;97.30;;;;;;4929610;29;20526;-69
2023/06/16 13:19:24;;;;;;;1.73;1.47;;;18.40;97.30;;;;;;4939244;29;20430;-69
2023/06/16 13:21:50;;;;;;;1.50;1.40;;;18.40;97.30;;;;;;4931405;29;20566;-70
2023/06/16 13:24:16;;;;;;;2.17;2.03;;;18.40;97.30;;;;;;4937267;29;20430;-70
2023/06/16 13:26:42;;;;;;;2.33;1.97;;;18.30;97.30;;;;;;4936086;29;20653;-70
2023/06/16 13:29:08;;;;;;;2.77;2.33;;;18.30;97.30;;;;;;4929726;29;20514;-70
2023/06/16 13:31:33;;;;;;;6.73;2.93;;;18.20;97.30;;;;;;4931351;29;20679;-70
2023/06/16 13:33:59;;;;;;;2.33;2.13;;;18.10;97.30;;;;;;4937220;29;20446;-69
2023/06/16 13:36:25;;;;;;;4.73;2.30;;;18.10;97.30;;;;;;4932526;28;20197;-71
2023/06/16 13:38:51;;;;;;;1.57;1.47;;;18.10;97.30;;;;;;4935140;29;20227;-70
2023/06/16 13:41:21;;;;;;;2.30;1.60;;;18.10;97.30;;;;;;4936018;29;20306;-71
2023/06/16 13:43:48;;;;;;;3.00;1.70;;;18.10;97.30;;;;;;4944132;29;20427;-70
2023/06/16 13:46:16;;;;;;;1.87;1.67;;;18.10;97.30;;;;;;4938010;28;20416;-70
2023/06/16 13:48:43;;;;;;;2.87;2.40;;;18.10;97.30;;;;;;4931620;29;20444;-69
2023/06/16 13:51:09;;;;;;;1.83;1.73;;;18.10;97.30;;;;;;4931360;29;20542;-69
2023/06/16 13:53:34;;;;;;;3.80;2.37;;;18.10;97.30;;;;;;4941158;29;21125;-68
2023/06/16 13:56:00;;;;;;;2.70;1.50;;;18.10;97.30;;;;;;4933282;29;20194;-70
2023/06/16 13:58:25;;;;;;;3.20;3.00;;;18.10;97.30;;;;;;4933985;29;20262;-68
2023/06/16 14:00:51;;;;;;;2.43;1.53;;;18.10;97.30;;;;;;4931683;29;20696;-69
2023/06/16 14:03:17;;;;;;;2.50;2.30;;;18.10;97.30;;;;;;4931605;29;20269;-69
2023/06/16 14:05:43;;;;;;;2.90;2.17;;;18.10;97.30;;;;;;4925717;29;20180;-69
2023/06/16 14:08:09;;;;;;;1.80;1.70;;;18.10;97.30;;;;;;4937297;29;20180;-68
2023/06/16 14:10:35;;;;;;;4.10;1.97;;;18.10;97.30;;;;;;4937872;29;20462;-69
2023/06/16 14:13:01;;;;;;;3.47;2.50;;;18.20;97.30;;;;;;4932252;29;20419;-69
2023/06/16 14:15:28;;;;;;;2.33;2.13;;;18.20;97.30;;;;;;4932727;29;20188;-69
2023/06/16 14:17:54;;;;;;;2.43;2.23;;;18.20;97.30;;;;;;4933509;29;20196;-69
2023/06/16 14:20:19;;;;;;;6.30;2.90;;;18.20;97.30;;;;;;4947135;28;20408;-69
2023/06/16 14:22:45;;;;;;;3.47;2.07;;;18.20;97.30;;;;;;4935142;29;20519;-69
2023/06/16 14:25:12;;;;;;;1.47;1.47;;;18.20;97.30;;;;;;4934175;29;20566;-68
2023/06/16 14:27:37;;;;;;;6.13;2.57;;;18.30;97.30;;;;;;4940912;29;20601;-69
2023/06/16 14:30:06;;;;;;;2.97;2.87;;;18.40;97.30;;;;;;4935589;29;20514;-70
2023/06/16 14:32:32;;;;;;;1.87;1.53;;;18.50;97.30;;;;;;4928818;29;20208;-69
2023/06/16 14:34:57;;;;;;;2.20;2.00;;;18.50;97.30;;;;;;4931947;29;20909;-69
2023/06/16 14:37:23;;;;;;;2.90;2.10;;;18.60;97.30;;;;;;4930181;29;20655;-69
2023/06/16 14:39:48;;;;;;;3.00;2.07;;;18.70;97.30;;;;;;4927876;29;20208;-69
2023/06/16 14:42:14;;;;;;;4.50;2.73;;;18.70;97.30;;;;;;4929257;29;20223;-68
2023/06/16 14:44:39;;;;;;;1.30;1.20;;;18.70;97.30;;;;;;4930903;29;20230;-69
2023/06/16 14:47:05;;;;;;;3.50;1.80;;;18.80;97.30;;;;;;4927802;29;20247;-68
2023/06/16 14:49:31;;;;;;;1.70;1.40;;;18.80;97.30;;;;;;4929191;29;20728;-69
2023/06/16 14:51:56;;;;;;;3.77;2.30;;;18.90;97.30;;;;;;4931195;29;20203;-69
2023/06/16 14:54:22;;;;;;;1.77;1.67;;;19.00;97.30;;;;;;4939078;28;20687;-69
2023/06/16 14:56:48;;;;;;;2.27;1.97;;;19.10;97.30;;;;;;4923226;29;20191;-69
2023/06/16 14:59:14;;;;;;;1.37;1.27;;;19.30;97.30;;;;;;4932740;29;20503;-69
2023/06/16 15:01:40;;;;;;;1.37;1.33;;;19.50;97.30;;;;;;4931004;29;20704;-71
2023/06/16 15:04:06;;;;;;;2.07;1.93;;;19.70;97.30;;;;;;4929295;29;20432;-70
2023/06/16 15:06:31;;;;;;;1.47;1.40;;;20.00;97.30;;;;;;4926576;29;20183;-71
2023/06/16 15:08:57;;;;;;;4.40;2.20;;;20.20;96.70;;;;;;4928388;29;20207;-70
2023/06/16 15:11:23;;;;;;;2.50;2.30;;;20.40;96.10;;;;;;4928415;29;20223;-70
2023/06/16 15:13:48;;;;;;;3.97;2.00;;;20.40;94.60;;;;;;4923280;29;20445;-70
2023/06/16 15:16:14;;;;;;;4.03;1.50;;;20.30;94.60;;;;;;4933681;29;20187;-70
2023/06/16 15:18:39;;;;;;;2.13;1.17;;;20.20;94.10;;;;;;4932536;29;20191;-70
2023/06/16 15:21:08;;;;;;;4.03;1.93;;;20.10;94.10;;;;;;4932764;29;20242;-70
2023/06/16 15:23:33;;;;;;;1.90;1.83;;;20.10;94.00;;;;;;4928856;29;20183;-70
2023/06/16 15:25:59;;;;;;;1.60;1.50;;;20.10;94.30;;;;;;4926018;29;20438;-70
2023/06/16 15:28:24;;;;;;;2.23;2.03;;;20.10;94.10;;;;;;4930464;28;20224;-70
2023/06/16 15:30:50;;;;;;;1.93;1.87;;;20.10;94.90;;;;;;4929396;29;20468;-70
2023/06/16 15:33:15;;;;;;;4.30;2.50;;;20.20;94.70;;;;;;4937502;29;20341;-70
2023/06/16 15:35:41;;;;;;;2.20;1.60;;;20.30;93.60;;;;;;4924522;29;20184;-71
2023/06/16 15:38:08;;;;;;;1.93;1.83;;;20.20;93.40;;;;;;4936156;28;20571;-72
2023/06/16 15:40:33;;;;;;;2.10;1.77;;;20.20;93.30;;;;;;4923928;29;20648;-70
2023/06/16 15:43:04;;;;;;;3.30;2.50;;;20.30;92.70;;;;;;4926127;29;20932;-70
2023/06/16 15:45:31;;;;;;;5.83;2.20;;;20.40;92.50;;;;;;4925497;29;20176;-71
2023/06/16 15:47:57;;;;;;;3.00;2.40;;;20.50;91.70;;;;;;4906603;29;20495;-69
2023/06/16 15:50:22;;;;;;;1.67;1.63;;;20.50;90.90;;;;;;4921423;29;20460;-68
2023/06/16 15:52:49;;;;;;;1.60;1.60;;;20.40;91.80;;;;;;4925801;29;20455;-69
2023/06/16 15:55:15;;;;;;;2.00;1.90;;;20.40;91.90;;;;;;4923670;29;20180;-70
2023/06/16 15:57:40;;;;;;;1.63;1.53;;;20.50;92.40;;;;;;4924299;29;20431;-70
2023/06/16 16:00:07;;;;;;;5.63;2.10;;;20.50;91.80;;;;;;4925437;29;20426;-68
2023/06/16 16:02:33;;;;;;;1.67;1.60;;;20.60;92.70;;;;;;4926991;29;20262;-69
2023/06/16 16:04:58;;;;;;;2.27;2.07;;;20.80;91.90;;;;;;4924289;29;20974;-69
2023/06/16 16:07:24;;;;;;;2.73;1.87;;;21.10;92.80;;;;;;4925442;29;20535;-69
2023/06/16 16:09:49;;;;;;;1.60;1.50;;;21.40;92.40;;;;;;4922766;29;20230;-68
2023/06/16 16:12:15;;;;;;;1.57;1.47;;;21.50;90.90;;;;;;4926016;29;20219;-69
2023/06/16 16:14:40;;;;;;;1.97;1.70;;;21.50;90.20;;;;;;4925678;29;20469;-71
2023/06/16 16:17:06;;;;;;;4.80;2.03;;;21.50;90.10;;;;;;4922505;29;20270;-69
2023/06/16 16:19:32;;;;;;;1.83;1.77;;;21.50;90.70;;;;;;4926536;29;20471;-70
2023/06/16 16:21:57;;;;;;;5.33;2.13;;;21.50;90.10;;;;;;4927777;29;21269;-69
2023/06/16 16:24:23;;;;;;;1.67;1.57;;;21.60;90.20;;;;;;4928173;29;20187;-69
2023/06/16 16:26:49;;;;;;;2.33;1.60;;;21.70;89.60;;;;;;4926499;29;20195;-70
2023/06/16 16:29:20;;;;;;;9.33;2.37;;;21.80;89.60;;;;;;4926501;29;20322;-70
2023/06/16 16:31:49;;;;;;;2.20;1.53;;;21.90;89.30;;;;;;4926629;29;20266;-70
2023/06/16 16:34:14;;;;;;;2.20;2.00;;;21.90;89.60;;;;;;4926352;29;20415;-70
2023/06/16 16:36:40;;;;;;;2.57;1.70;;;22.00;89.90;;;;;;4928032;29;20432;-70
2023/06/16 16:39:06;;;;;;;2.57;2.37;;;22.00;89.50;;;;;;4928200;29;20187;-70
2023/06/16 16:41:32;;;;;;;4.30;2.03;;;22.00;89.60;;;;;;4928422;29;20241;-70
2023/06/16 16:43:57;;;;;;;2.30;1.73;;;21.80;89.60;;;;;;4929648;29;20760;-70